Data for 10/19/2006

Time Sea-Level Adjusted Pressure Absolute Pressure Temperature Relative Humidity Dew Point   
(mb) (inHg) (mb) (inHg) (C) (F) (%) (C) (F)
00:05 1018 30.06 847 25.01 2.6 36.7 90 1.1 33.9
00:10 1018 30.06 847 25.01 2.7 36.9 90 1.2 34.2
00:15 1018 30.06 847 25.01 2.6 36.7 90 1.1 34
00:20 1018 30.06 847 25.01 2.6 36.7 89 1 33.8
00:25 1018 30.06 847 25.01 2.6 36.7 89 1.1 33.9
00:30 1018 30.06 847 25.01 2.6 36.6 90 1.1 33.9
00:35 1018 30.06 847 25.01 2.5 36.5 90 1 33.8
00:40 1018 30.06 847 25.01 2.4 36.3 90 1 33.8
00:45 1018 30.06 847 25.01 2.3 36.2 91 1 33.8
00:50 1018 30.06 847 25.01 2.2 36 91 0.9 33.7
00:55 1018 30.06 847 25.01 2.2 35.9 91 0.9 33.6
01:00 1018 30.06 847 25.01 2.1 35.8 92 0.9 33.7
01:05 1018 30.06 847 25.01 2 35.7 92 0.9 33.6
01:10 1018 30.06 847 25.01 2.1 35.7 92 0.9 33.7
01:15 1018 30.06 847 25.01 2.1 35.8 92 1 33.7
01:20 1018 30.06 847 25.01 2.1 35.7 92 0.9 33.7
01:25 1018 30.06 847 25.01 2.1 35.7 92 0.9 33.6
01:30 1018 30.06 848 25.04 2.1 35.7 93 1 33.8
01:35 1018 30.06 847 25.01 2.1 35.8 92 1 33.8
01:40 1018 30.06 848 25.04 2.2 35.9 92 1 33.8
01:45 1018 30.06 848 25.04 2.3 36.1 92 1.1 34
01:50 1018 30.06 848 25.04 2.2 36 92 1.1 34
01:55 1018 30.06 848 25.04 2.4 36.3 92 1.1 34
02:00 1018 30.06 848 25.04 2.4 36.4 92 1.2 34.2
02:05 1018 30.06 848 25.04 2.4 36.4 92 1.2 34.1
02:10 1018 30.06 848 25.04 2.4 36.4 92 1.3 34.4
02:15 1018 30.06 848 25.04 2.4 36.3 93 1.4 34.6
02:20 1018 30.06 848 25.04 2.4 36.3 94 1.5 34.6
02:25 1018 30.06 848 25.04 2.3 36.2 94 1.5 34.6
02:30 1018 30.06 848 25.04 2.3 36.1 94 1.3 34.4
02:35 1018 30.06 848 25.04 2.3 36.1 93 1.3 34.3
02:40 1018 30.06 848 25.04 2.3 36.1 93 1.2 34.2
02:45 1018 30.06 848 25.04 2.3 36.2 92 1.2 34.2
02:50 1018 30.06 848 25.04 2.4 36.3 91 1.2 34.1
02:55 1018 30.06 847 25.01 2.5 36.4 90 1 33.9
03:00 1018 30.06 848 25.04 2.5 36.5 90 1 33.8
03:05 1018 30.06 848 25.04 2.6 36.6 89 0.9 33.7
03:10 1018 30.06 848 25.04 2.7 36.8 89 1 33.8
03:15 1018 30.06 847 25.01 2.6 36.7 88 0.8 33.5
03:20 1018 30.06 847 25.01 2.8 37 87 0.8 33.5
03:25 1018 30.06 847 25.01 2.9 37.3 86 0.7 33.3
03:30 1018 30.06 847 25.01 2.9 37.3 86 0.9 33.6
03:35 1018 30.06 847 25.01 2.8 37.1 85 0.6 33.1
03:40 1018 30.06 847 25.01 2.9 37.2 85 0.7 33.2
03:45 1018 30.06 847 25.01 2.9 37.3 85 0.6 33.1
03:50 1018 30.06 847 25.01 3.1 37.5 85 0.7 33.3
03:55 1018 30.06 847 25.01 3.1 37.5 84 0.7 33.3
04:00 1018 30.06 847 25.01 3.1 37.7 84 0.8 33.4
04:05 1018 30.06 847 25.01 3.2 37.8 83 0.5 33
04:10 1018 30.06 847 25.01 3.4 38 82 0.6 33.1
04:15 1018 30.06 847 25.01 3.5 38.2 83 0.9 33.6
04:20 1018 30.06 847 25.01 3.4 38.1 86 1.3 34.3
04:25 1018 30.06 847 25.01 3.3 38 86 1.2 34.1
04:30 1018 30.06 847 25.01 3.3 38 86 1.2 34.2
04:35 1018 30.06 847 25.01 3.3 37.9 86 1.2 34.2
04:40 1018 30.06 847 25.01 3 37.4 90 1.5 34.7
04:45 1018 30.06 847 25.01 2.7 36.9 90 1.2 34.1
04:50 1018 30.06 847 25.01 2.8 37 90 1.2 34.2
04:55 1018 30.06 847 25.01 2.9 37.2 88 1 33.8
05:00 1018 30.06 847 25.01 3.1 37.5 87 1.1 33.9
05:05 1018 30.06 847 25.01 3.1 37.6 88 1.3 34.3
05:10 1018 30.06 847 25.01 3.1 37.5 87 1.2 34.2
05:15 1018 30.06 847 25.01 3.3 37.9 86 1.1 34
05:20 1018 30.06 847 25.01 3.4 38.2 84 1.1 33.9
05:25 1018 30.06 847 25.01 3.4 38 86 1.2 34.2
05:30 1018 30.06 847 25.01 3.2 37.7 87 1.2 34.1
05:35 1018 30.06 847 25.01 3.3 37.9 85 1 33.9
05:40 1018 30.06 847 25.01 3.2 37.7 86 1.1 33.9
05:45 1018 30.06 847 25.01 3.2 37.8 87 1.2 34.1
05:50 1018 30.06 847 25.01 3.4 38.1 88 1.6 34.9
05:55 1018 30.06 847 25.01 3.2 37.8 88 1.4 34.5
06:00 1018 30.06 847 25.01 2.9 37.2 90 1.5 34.6
06:05 1018 30.06 847 25.01 2.8 37.1 91 1.5 34.7
06:10 1018 30.06 847 25.01 2.7 36.8 92 1.4 34.6
06:15 1018 30.06 847 25.01 2.6 36.7 93 1.5 34.8
06:20 1018 30.06 847 25.01 2.7 36.9 91 1.4 34.6
06:25 1018 30.06 847 25.01 2.8 37.1 91 1.4 34.6
06:30 1018 30.06 847 25.01 3 37.3 89 1.4 34.5
06:35 1018 30.06 847 25.01 3.3 38 88 1.5 34.7
06:40 1018 30.06 847 25.01 3.5 38.3 82 0.8 33.4
06:45 1018 30.06 847 25.01 4 39.2 79 0.7 33.3
06:50 1018 30.06 847 25.01 4.3 39.7 80 1.1 34
06:55 1018 30.06 847 25.01 4.3 39.8 77 0.6 33.1
07:00 1018 30.06 847 25.01 4.4 39.9 80 1.3 34.3
07:05 1018 30.06 847 25.01 4.2 39.5 82 1.4 34.5
07:10 1018 30.06 847 25.01 3.9 39 85 1.5 34.8
07:15 1018 30.06 847 25.01 3.6 38.4 87 1.7 35
07:20 1018 30.06 847 25.01 3.3 38 88 1.5 34.8
07:25 1018 30.06 847 25.01 3.7 38.6 82 0.9 33.6
07:30 1018 30.06 847 25.01 4.1 39.4 79 0.8 33.4
07:35 1018 30.06 847 25.01 4.2 39.6 80 1 33.9
07:40 1018 30.06 847 25.01 4.1 39.4 84 1.6 34.9
07:45 1018 30.06 847 25.01 3.8 38.8 86 1.6 34.9
07:50 1018 30.06 847 25.01 3.6 38.5 84 1.2 34.2
07:55 1018 30.06 847 25.01 3.5 38.4 84 1.1 34
08:00 1018 30.06 847 25.01 3.6 38.4 83 0.9 33.7
08:05 1018 30.06 847 25.01 3.8 38.8 79 0.5 33
08:10 1018 30.06 847 25.01 4.2 39.5 77 0.4 32.8
08:15 1018 30.06 847 25.01 4.3 39.7 75 0.2 32.4
08:20 1018 30.06 847 25.01 4.5 40 74 0.2 32.3
08:25 1018 30.06 847 25.01 4.5 40.2 76 0.8 33.4
08:30 1018 30.06 847 25.01 4.5 40.2 75 0.4 32.8
08:35 1018 30.06 847 25.01 4.6 40.4 75 0.5 33
08:40 1018 30.06 847 25.01 4.8 40.7 74 0.6 33.1
08:45 1018 30.06 847 25.01 4.9 40.9 75 0.8 33.4
08:50 1018 30.06 847 25.01 5 41 74 0.8 33.5
08:55 1018 30.06 847 25.01 5 41 76 1.1 34
09:00 1018 30.06 847 25.01 5 40.9 75 0.9 33.7
09:05 1018 30.06 847 25.01 5 41 75 0.9 33.6
09:10 1018 30.06 847 25.01 5.1 41.2 75 1.1 34.1
09:15 1018 30.06 847 25.01 5 41 77 1.3 34.3
09:20 1018 30.06 847 25.01 4.9 40.8 78 1.4 34.6
09:25 1018 30.06 847 25.01 4.9 40.9 78 1.5 34.7
09:30 1018 30.06 847 25.01 4.9 40.7 79 1.5 34.6
09:35 1018 30.06 847 25.01 4.9 40.8 77 1.2 34.2
09:40 1018 30.06 847 25.01 5 40.9 79 1.6 34.8
09:45 1018 30.06 847 25.01 5 41.1 78 1.5 34.7
09:50 1018 30.06 847 25.01 5.1 41.2 78 1.7 35
09:55 1018 30.06 847 25.01 5 41.1 78 1.6 34.8
10:00 1018 30.06 847 25.01 5.1 41.2 78 1.6 34.8
10:05 1018 30.06 847 25.01 5.4 41.6 76 1.4 34.5
10:10 1018 30.06 847 25.01 5.6 42.1 75 1.5 34.6
10:15 1018 30.06 847 25.01 5.5 41.8 75 1.5 34.7
10:20 1018 30.06 847 25.01 5.1 41.2 78 1.5 34.8
10:25 1018 30.06 847 25.01 5.2 41.4 74 0.9 33.7
10:30 1018 30.06 847 25.01 5.5 41.9 73 1.1 34.1
10:35 1018 30.06 847 25.01 5.9 42.6 71 1 33.8
10:40 1018 30.06 847 25.01 6.2 43.1 71 1.3 34.4
10:45 1018 30.06 847 25.01 6.3 43.3 72 1.6 34.9
10:50 1018 30.06 847 25.01 6.4 43.6 69 1.2 34.1
10:55 1018 30.06 847 25.01 6.4 43.6 70 1.4 34.4
11:00 1018 30.06 847 25.01 6.4 43.5 71 1.5 34.7
11:05 1018 30.06 847 25.01 6.5 43.6 71 1.5 34.7
11:10 1018 30.06 847 25.01 6.5 43.7 69 1.3 34.3
11:15 1018 30.06 847 25.01 6.5 43.8 70 1.4 34.6
11:20 1017 30.03 847 25.01 6.3 43.3 75 2.1 35.8
11:25 1017 30.03 847 25.01 5.6 42.1 78 2 35.7
11:30 1017 30.03 847 25.01 5.4 41.7 78 1.9 35.4
11:35 1017 30.03 846 24.98 5.4 41.8 79 2.2 35.9
11:40 1017 30.03 846 24.98 5.7 42.2 77 1.9 35.5
11:45 1017 30.03 846 24.98 5.8 42.4 75 1.8 35.2
11:50 1017 30.03 846 24.98 6 42.8 75 1.8 35.3
11:55 1017 30.03 846 24.98 6.5 43.8 72 1.9 35.4
12:00 1017 30.03 846 24.98 7 44.5 73 2.6 36.6
12:05 1017 30.03 846 24.98 7 44.7 77 3.3 37.9
12:10 1017 30.03 846 24.98 7.7 45.9 72 2.9 37.3
12:15 1017 30.03 846 24.98 7.9 46.2 72 3.2 37.8
12:20 1017 30.03 846 24.98 8.4 47 69 3.1 37.6
12:25 1017 30.03 846 24.98 8.7 47.6 65 2.4 36.3
12:30 1017 30.03 846 24.98 9.2 48.6 64 2.7 36.8
12:35 1017 30.03 846 24.98 9.6 49.4 58 1.9 35.5
12:40 1017 30.03 846 24.98 9.7 49.5 61 2.6 36.6
12:45 1017 30.03 846 24.98 9.9 49.8 56 1.7 35
12:50 1017 30.03 846 24.98 10 49.9 52 0.6 33.1
12:55 1016 30 846 24.98 10 50.1 51 0.5 32.9
13:00 1016 30 846 24.98 10.1 50.1 49 0 32
13:05 1016 30 846 24.98 10.2 50.4 48 -0.3 31.4
13:10 1016 30 845 24.95 10.4 50.7 46 -0.7 30.8
13:15 1016 30 845 24.95 10.7 51.3 46 -0.3 31.5
13:20 1016 30 845 24.95 11.3 52.3 43 -0.7 30.8
13:25 1016 30 845 24.95 11.1 51.9 45 -0.5 31.1
13:30 1016 30 845 24.95 11.5 52.8 42 -0.9 30.3
13:35 1016 30 845 24.95 11.7 53 44 -0 32
13:40 1016 30 845 24.95 11.7 53 44 -0.2 31.7
13:45 1016 30 845 24.95 11.4 52.5 43 -0.8 30.6
13:50 1016 30 845 24.95 10.7 51.3 44 -1.1 30
13:55 1016 30 845 24.95 10.6 51.1 43 -1.3 29.7
14:00 1016 30 845 24.95 10.5 51 45 -0.9 30.4
14:05 1016 30 845 24.95 10.5 50.9 45 -0.8 30.6
14:10 1016 30 845 24.95 10.7 51.2 46 -0.5 31.2
14:15 1016 30 845 24.95 10.9 51.6 45 -0.6 31
14:20 1015 29.97 845 24.95 10.9 51.6 45 -0.5 31
14:25 1015 29.97 845 24.95 10.7 51.3 45 -0.8 30.5
14:30 1015 29.97 844 24.92 10.7 51.3 45 -0.6 31
14:35 1015 29.97 844 24.92 10.8 51.4 46 -0.2 31.7
14:40 1015 29.97 844 24.92 10.8 51.5 47 0 32
14:45 1015 29.97 844 24.92 10.8 51.4 46 -0.4 31.3
14:50 1015 29.97 844 24.92 10.7 51.3 42 -1.7 28.9
14:55 1015 29.97 844 24.92 10.7 51.3 44 -1 30.1
15:00 1015 29.97 844 24.92 10.9 51.5 44 -0.8 30.6
15:05 1015 29.97 844 24.92 10.8 51.4 43 -1.3 29.7
15:10 1015 29.97 844 24.92 10.7 51.3 44 -0.9 30.4
15:15 1015 29.97 844 24.92 10.7 51.3 45 -0.6 30.9
15:20 1015 29.97 844 24.92 10.7 51.3 45 -0.7 30.8
15:25 1015 29.97 844 24.92 10.7 51.2 47 -0.2 31.7
15:30 1015 29.97 844 24.92 10.7 51.2 47 -0.1 31.9
15:35 1015 29.97 844 24.92 10.5 50.9 46 -0.7 30.7
15:40 1015 29.97 844 24.92 10.3 50.5 46 -0.9 30.5
15:45 1015 29.97 844 24.92 10.3 50.5 47 -0.6 30.9
15:50 1015 29.97 844 24.92 10.4 50.7 48 -0.2 31.7
15:55 1014 29.94 844 24.92 10.3 50.6 47 -0.3 31.4
16:00 1014 29.94 844 24.92 10.3 50.5 50 0.4 32.8
16:05 1014 29.94 844 24.92 10 49.9 53 0.9 33.6
16:10 1014 29.94 844 24.92 9.4 49 57 1.4 34.4
16:15 1014 29.94 844 24.92 9.4 48.9 57 1.3 34.3
16:20 1015 29.97 844 24.92 9.4 48.9 56 1.2 34.1
16:25 1015 29.97 844 24.92 9.4 48.9 59 1.7 35.1
16:30 1015 29.97 844 24.92 9.2 48.6 62 2.4 36.2
16:35 1015 29.97 844 24.92 9 48.1 60 1.6 34.9
16:40 1015 29.97 844 24.92 8.9 47.9 63 2.3 36.1
16:45 1015 29.97 844 24.92 8.6 47.5 67 2.8 37
16:50 1015 29.97 844 24.92 8.4 47.1 67 2.7 36.8
16:55 1015 29.97 844 24.92 8.3 46.9 67 2.6 36.6
17:00 1014 29.94 844 24.92 8.1 46.6 69 2.7 36.9
17:05 1014 29.94 844 24.92 8 46.4 71 3.1 37.6
17:10 1014 29.94 844 24.92 7.9 46.2 71 3 37.4
17:15 1014 29.94 843 24.89 7.9 46.2 72 3.1 37.7
17:20 1014 29.94 843 24.89 7.8 46 74 3.5 38.3
17:25 1014 29.94 843 24.89 7.8 46 73 3.2 37.8
17:30 1014 29.94 843 24.89 7.9 46.1 78 4.2 39.6
17:35 1014 29.94 843 24.89 7.9 46.1 74 3.6 38.4
17:40 1014 29.94 843 24.89 7.8 46.1 76 3.9 38.9
17:45 1014 29.94 843 24.89 7.8 46 76 3.8 38.9
17:50 1014 29.94 843 24.89 7.8 46 78 4.2 39.6
17:55 1014 29.94 843 24.89 7.8 46 76 3.8 38.8
18:00 1014 29.94 843 24.89 7.7 45.9 78 4.1 39.4
18:05 1014 29.94 843 24.89 7.8 46 78 4.1 39.4
18:10 1014 29.94 843 24.89 7.7 45.9 80 4.5 40
18:15 1014 29.94 843 24.89 7.3 45.1 83 4.5 40.1
18:20 1013 29.91 843 24.89 6.8 44.3 84 4.4 39.9
18:25 1013 29.91 843 24.89 6.6 43.9 86 4.5 40
18:30 1013 29.91 843 24.89 6.6 43.9 86 4.4 40
18:35 1013 29.91 842 24.86 6.5 43.7 86 4.4 39.9
18:40 1013 29.91 842 24.86 6.4 43.5 86 4.2 39.5
18:45 1013 29.91 842 24.86 6.5 43.7 85 4.2 39.5
18:50 1013 29.91 842 24.86 6.7 44 86 4.4 40
18:55 1013 29.91 842 24.86 6.8 44.2 84 4.4 39.9
19:00 1013 29.91 842 24.86 6.9 44.3 84 4.3 39.8
19:05 1013 29.91 842 24.86 6.7 44 84 4.2 39.6
19:10 1013 29.91 842 24.86 6.4 43.6 86 4.2 39.6
19:15 1013 29.91 842 24.86 6.5 43.7 84 4 39.1
19:20 1013 29.91 842 24.86 6.9 44.5 84 4.5 40.1
19:25 1013 29.91 842 24.86 7.1 44.7 85 4.7 40.4
19:30 1013 29.91 842 24.86 6.9 44.4 87 4.8 40.7
19:35 1013 29.91 842 24.86 6.8 44.3 88 5 40.9
19:40 1013 29.91 842 24.86 6.7 44 88 4.9 40.9
19:45 1013 29.91 842 24.86 6.6 43.9 89 4.9 40.8
19:50 1012 29.88 842 24.86 6.3 43.4 91 4.9 40.8
19:55 1012 29.88 842 24.86 6 42.9 91 4.7 40.5
20:00 1012 29.88 841 24.83 5.9 42.7 93 4.8 40.6
20:05 1012 29.88 841 24.83 5.9 42.7 93 4.8 40.7
20:10 1012 29.88 841 24.83 5.8 42.5 92 4.7 40.4
20:15 1012 29.88 841 24.83 5.8 42.5 92 4.6 40.3
20:20 1012 29.88 841 24.83 5.8 42.5 91 4.5 40.1
20:25 1012 29.88 841 24.83 5.9 42.6 92 4.7 40.5
20:30 1012 29.88 841 24.83 6 42.7 92 4.8 40.6
20:35 1012 29.88 841 24.83 5.9 42.7 92 4.8 40.6
20:40 1012 29.88 841 24.83 6 42.7 92 4.7 40.5
20:45 1012 29.88 841 24.83 5.8 42.5 93 4.7 40.5
20:50 1011 29.85 841 24.83 5.6 42.1 93 4.5 40.1
20:55 1011 29.85 841 24.83 5.3 41.6 94 4.4 39.9
21:00 1011 29.85 840 24.81 5.2 41.4 94 4.3 39.8
21:05 1011 29.85 841 24.83 5.2 41.3 94 4.3 39.7
21:10 1011 29.85 840 24.81 5.2 41.4 93 4.2 39.6
21:15 1011 29.85 840 24.81 5.2 41.4 93 4.2 39.5
21:20 1011 29.85 840 24.81 5.3 41.6 93 4.3 39.7
21:25 1011 29.85 840 24.81 5.4 41.7 92 4.2 39.6
21:30 1011 29.85 840 24.81 5.5 41.9 90 4 39.2
21:35 1011 29.85 840 24.81 5.7 42.2 90 4.2 39.5
21:40 1011 29.85 840 24.81 5.6 42.1 90 4.1 39.4
21:45 1011 29.85 840 24.81 5.7 42.2 90 4.2 39.5
21:50 1011 29.85 840 24.81 5.8 42.5 90 4.2 39.6
21:55 1011 29.85 840 24.81 5.8 42.5 90 4.3 39.7
22:00 1011 29.85 840 24.81 5.8 42.4 89 4.1 39.3
22:05 1011 29.85 840 24.81 6 42.7 89 4.3 39.8
22:10 1011 29.85 840 24.81 5.8 42.4 90 4.3 39.7
22:15 1011 29.85 840 24.81 6 42.9 86 3.9 39
22:20 1011 29.85 840 24.81 6.3 43.4 86 4.1 39.4
22:25 1011 29.85 840 24.81 6.1 43 88 4.3 39.8
22:30 1011 29.85 840 24.81 6.1 43.1 82 3.3 38
22:35 1010 29.83 840 24.81 6.6 43.9 85 4.2 39.6
22:40 1010 29.83 840 24.81 6.3 43.3 88 4.4 39.9
22:45 1010 29.83 839 24.78 6.1 43 86 4 39.2
22:50 1010 29.83 839 24.78 6.5 43.7 82 3.6 38.5
22:55 1010 29.83 839 24.78 6.9 44.5 80 3.7 38.6
23:00 1010 29.83 839 24.78 7.6 45.7 72 3 37.3
23:05 1010 29.83 839 24.78 8.4 47.2 73 3.9 38.9
23:10 1010 29.83 839 24.78 8.6 47.4 73 4.1 39.4
23:15 1010 29.83 839 24.78 8.8 47.8 67 3.1 37.6
23:20 1010 29.83 839 24.78 9.1 48.4 67 3.3 37.9
23:25 1010 29.83 839 24.78 9.2 48.6 65 3.1 37.5
23:30 1010 29.83 839 24.78 9.2 48.5 69 3.7 38.7
23:35 1010 29.83 839 24.78 8.6 47.4 74 4.3 39.7
23:40 1010 29.83 839 24.78 8.2 46.7 77 4.4 39.9
23:45 1010 29.83 839 24.78 8 46.3 77 4.2 39.5
23:50 1009 29.8 839 24.78 7.9 46.1 75 3.6 38.6
23:55 1009 29.8 838 24.75 8.4 47.2 71 3.5 38.3
24:00 1009 29.8 838 24.75 8.8 47.8 72 4 39.3